Time;durP1;ratioP1;P1;durP2;ratioP2;P2;SDS_P1;SDS_P2;PMS_P1;PMS_P2;Temp;Humidity;BMP_temperature;BMP_pressure;BME280_temperature;BME280_humidity;BME280_pressure;Samples;Min_cycle;Max_cycle;Signal;HPM_P1;HPM_P2
2022/12/20 00:00:43;;;;;;;17.33;5.97;;;8.90;99.90;;;;;;6170624;23;20051;-80
2022/12/20 00:03:10;;;;;;;8.95;5.15;;;8.80;99.90;;;;;;6170155;23;20346;-80
2022/12/20 00:05:37;;;;;;;11.07;5.38;;;8.80;99.90;;;;;;6171136;23;20032;-80
2022/12/20 00:08:03;;;;;;;9.60;4.90;;;8.80;99.90;;;;;;6170828;23;20621;-80
2022/12/20 00:10:28;;;;;;;8.77;4.85;;;8.90;99.90;;;;;;6170139;23;20029;-81
2022/12/20 00:12:54;;;;;;;7.50;5.20;;;8.90;99.90;;;;;;6171952;23;20405;-80
2022/12/20 00:15:20;;;;;;;13.35;5.45;;;8.80;99.90;;;;;;6170146;23;20052;-80
2022/12/20 00:17:45;;;;;;;7.45;4.35;;;8.80;99.90;;;;;;6172255;23;20017;-80
2022/12/20 00:20:12;;;;;;;7.65;4.53;;;8.80;99.90;;;;;;6169633;23;20100;-79
2022/12/20 00:22:38;;;;;;;6.95;4.53;;;8.80;99.90;;;;;;6171777;23;20108;-80
2022/12/20 00:25:04;;;;;;;7.93;4.57;;;8.80;99.90;;;;;;6169411;23;20187;-80
2022/12/20 00:27:30;;;;;;;9.95;4.50;;;8.80;99.90;;;;;;6168287;23;20066;-80
2022/12/20 00:29:55;;;;;;;6.25;4.10;;;8.90;99.90;;;;;;6172915;23;20044;-81
2022/12/20 00:32:21;;;;;;;6.45;4.35;;;8.90;99.90;;;;;;6124095;23;1074301;-80
2022/12/20 00:34:46;;;;;;;8.55;4.10;;;8.90;99.90;;;;;;6171869;23;20096;-80
2022/12/20 00:37:12;;;;;;;8.20;3.67;;;8.90;99.90;;;;;;6173618;23;20048;-81
2022/12/20 00:39:38;;;;;;;6.18;4.07;;;9.00;99.90;;;;;;6172350;23;20029;-81
2022/12/20 00:42:03;;;;;;;7.68;4.43;;;8.90;99.90;;;;;;6172148;23;20416;-79
2022/12/20 00:44:29;;;;;;;8.25;4.82;;;8.90;99.90;;;;;;6175007;23;20127;-79
2022/12/20 00:46:55;;;;;;;8.63;4.43;;;8.90;99.90;;;;;;6171715;23;20051;-80
2022/12/20 00:49:20;;;;;;;6.65;3.90;;;8.90;99.90;;;;;;6172109;23;20477;-80
2022/12/20 00:51:46;;;;;;;8.13;4.25;;;8.90;99.90;;;;;;6170699;23;20076;-80
2022/12/20 00:54:12;;;;;;;6.82;4.40;;;9.00;99.90;;;;;;6172599;23;20048;-80
2022/12/20 00:56:38;;;;;;;6.90;4.18;;;9.00;99.90;;;;;;6174781;23;20461;-80
2022/12/20 00:59:03;;;;;;;8.50;3.95;;;9.00;99.90;;;;;;6171172;23;20076;-80
2022/12/20 01:01:33;;;;;;;7.78;4.40;;;9.00;99.90;;;;;;6170459;23;20365;-80
2022/12/20 01:04:00;;;;;;;6.55;4.03;;;9.00;99.90;;;;;;6172048;23;20024;-80
2022/12/20 01:06:26;;;;;;;8.07;3.80;;;9.00;99.90;;;;;;6174301;23;20491;-80
2022/12/20 01:08:53;;;;;;;9.00;4.35;;;8.90;99.90;;;;;;6172327;23;20040;-81
2022/12/20 01:11:22;;;;;;;7.50;3.67;;;9.00;99.90;;;;;;6173995;23;20035;-80
2022/12/20 01:13:50;;;;;;;6.78;4.03;;;8.90;99.90;;;;;;6172811;23;20770;-81
2022/12/20 01:16:22;;;;;;;9.05;3.88;;;8.80;99.90;;;;;;6170700;23;20024;-80
2022/12/20 01:18:49;;;;;;;6.85;3.95;;;8.90;99.90;;;;;;6174972;23;20023;-80
2022/12/20 01:21:16;;;;;;;10.40;4.47;;;8.90;99.90;;;;;;6172295;23;20075;-81
2022/12/20 01:23:42;;;;;;;7.90;3.90;;;9.00;99.90;;;;;;6172882;23;20056;-81
2022/12/20 01:26:11;;;;;;;6.60;3.75;;;9.00;99.90;;;;;;6174846;23;20079;-80
2022/12/20 01:28:38;;;;;;;7.38;4.47;;;8.90;99.90;;;;;;6174250;23;20133;-81
2022/12/20 01:31:08;;;;;;;6.68;4.03;;;8.90;99.90;;;;;;6169859;23;20052;-80
2022/12/20 01:33:34;;;;;;;8.45;4.28;;;8.90;99.90;;;;;;6175431;23;20017;-81
2022/12/20 01:36:07;;;;;;;6.25;4.07;;;9.00;99.90;;;;;;6147568;23;20413;-80
2022/12/20 01:38:34;;;;;;;7.65;4.18;;;8.90;99.90;;;;;;6149162;23;20054;-80
2022/12/20 01:41:00;;;;;;;6.63;4.10;;;8.90;99.90;;;;;;6151119;23;20032;-80
2022/12/20 01:43:54;;;;;;;7.57;4.00;;;9.00;99.90;;;;;;6176086;23;20080;-80
2022/12/20 01:46:23;;;;;;;7.47;4.60;;;9.00;99.90;;;;;;6146038;23;20031;-80
2022/12/20 01:49:07;;;;;;;7.32;4.00;;;9.00;99.90;;;;;;6175812;23;20017;-81
2022/12/20 01:51:36;;;;;;;8.52;4.15;;;9.00;99.90;;;;;;6173674;23;20409;-81
2022/12/20 01:54:18;;;;;;;6.50;3.63;;;9.00;99.90;;;;;;6175977;23;20220;-79
2022/12/20 01:56:49;;;;;;;7.25;3.67;;;9.00;99.90;;;;;;6149843;23;20029;-80
2022/12/20 01:59:15;;;;;;;7.50;3.83;;;9.10;99.90;;;;;;6149341;23;20028;-80
2022/12/20 02:01:43;;;;;;;7.63;4.05;;;9.10;99.90;;;;;;6175071;23;20051;-80
2022/12/20 02:04:09;;;;;;;7.55;3.88;;;9.00;99.90;;;;;;6172961;23;20369;-80
2022/12/20 02:06:35;;;;;;;11.48;4.80;;;9.10;99.90;;;;;;6172408;23;20020;-80
2022/12/20 02:09:02;;;;;;;8.02;4.57;;;9.10;99.90;;;;;;6176534;23;20024;-80
2022/12/20 02:11:47;;;;;;;8.05;4.20;;;9.00;99.90;;;;;;6175928;23;20056;-80
2022/12/20 02:14:35;;;;;;;7.22;4.60;;;8.90;99.90;;;;;;6147879;23;20103;-79
2022/12/20 02:17:22;;;;;;;9.68;4.30;;;9.00;99.90;;;;;;6145765;23;20533;-79
2022/12/20 02:19:53;;;;;;;6.30;3.80;;;9.00;99.90;;;;;;6149308;23;20025;-80
2022/12/20 02:22:28;;;;;;;11.07;4.20;;;9.00;99.90;;;;;;6149338;23;20032;-80
2022/12/20 02:25:00;;;;;;;6.15;4.00;;;9.00;99.90;;;;;;6176202;23;20017;-81
2022/12/20 02:27:42;;;;;;;9.63;4.00;;;9.00;99.90;;;;;;6174777;23;20098;-81
2022/12/20 02:30:13;;;;;;;7.00;3.57;;;8.90;99.90;;;;;;6175134;23;20519;-82
2022/12/20 02:33:01;;;;;;;6.88;4.32;;;9.00;99.90;;;;;;6151627;23;20334;-81
2022/12/20 02:35:31;;;;;;;7.53;4.30;;;8.90;99.90;;;;;;6148332;23;20301;-81
2022/12/20 02:37:59;;;;;;;9.35;4.88;;;8.90;99.90;;;;;;6173631;23;20023;-82
2022/12/20 02:40:36;;;;;;;7.40;4.53;;;8.80;99.90;;;;;;6172816;23;20051;-82
2022/12/20 02:45:14;;;;;;;8.15;4.43;;;8.90;99.90;;;;;;6172867;23;20495;-81
2022/12/20 02:45:51;;;;;;;10.48;4.32;;;8.90;99.90;;;;;;6171737;23;20054;-82
2022/12/20 02:48:18;;;;;;;8.73;4.82;;;8.90;99.90;;;;;;6170360;23;20099;-83
2022/12/20 02:50:48;;;;;;;14.30;5.00;;;8.80;99.90;;;;;;6173746;23;20028;-83
2022/12/20 02:53:15;;;;;;;8.55;4.47;;;8.80;99.90;;;;;;6174120;23;20029;-82
2022/12/20 02:55:48;;;;;;;10.20;5.03;;;8.80;99.90;;;;;;6174109;23;20272;-83
2022/12/20 02:58:27;;;;;;;13.15;5.30;;;8.80;99.90;;;;;;6173890;23;20464;-82
2022/12/20 03:00:57;;;;;;;8.35;5.10;;;8.70;99.90;;;;;;6173682;23;20061;-83
2022/12/20 03:03:22;;;;;;;9.30;4.78;;;8.80;99.90;;;;;;6174735;23;20063;-82
2022/12/20 03:05:51;;;;;;;9.10;4.70;;;8.80;99.90;;;;;;6176474;23;20021;-82
2022/12/20 03:08:18;;;;;;;7.05;4.50;;;8.80;99.90;;;;;;6175090;23;20146;-83
2022/12/20 03:10:43;;;;;;;7.68;4.45;;;8.80;99.90;;;;;;6172548;23;20024;-82
2022/12/20 03:13:09;;;;;;;8.93;5.00;;;8.80;99.90;;;;;;6173137;23;20088;-81
2022/12/20 03:15:35;;;;;;;11.18;5.38;;;8.70;99.90;;;;;;6176555;23;20064;-82
2022/12/20 03:18:01;;;;;;;9.63;4.70;;;8.80;99.90;;;;;;6172549;23;20036;-83
2022/12/20 03:20:27;;;;;;;7.70;5.55;;;8.80;99.90;;;;;;6172527;23;20021;-83
2022/12/20 03:22:53;;;;;;;8.48;4.60;;;8.80;99.90;;;;;;6173070;23;20330;-83
2022/12/20 03:25:19;;;;;;;10.65;5.72;;;8.70;99.90;;;;;;6175069;23;20024;-82
2022/12/20 03:27:44;;;;;;;9.55;5.05;;;8.80;99.90;;;;;;6175283;23;20029;-82
2022/12/20 03:30:11;;;;;;;7.63;4.78;;;8.80;99.90;;;;;;6172329;23;20407;-82
2022/12/20 03:32:37;;;;;;;8.65;4.70;;;8.80;99.90;;;;;;6170361;23;20020;-82
2022/12/20 03:35:03;;;;;;;10.27;5.35;;;8.70;99.90;;;;;;6175407;23;20140;-82
2022/12/20 03:37:28;;;;;;;9.88;5.50;;;8.80;99.90;;;;;;6175509;23;20360;-83
2022/12/20 03:39:54;;;;;;;9.88;5.20;;;8.80;99.90;;;;;;6177118;23;20038;-83
2022/12/20 03:42:19;;;;;;;10.57;5.30;;;8.70;99.90;;;;;;6170676;23;20047;-83
2022/12/20 03:44:45;;;;;;;8.55;5.30;;;8.80;99.90;;;;;;6172526;23;20085;-83
2022/12/20 03:47:11;;;;;;;11.93;5.68;;;8.70;99.90;;;;;;6173089;23;20071;-81
2022/12/20 03:49:36;;;;;;;8.45;5.28;;;8.70;99.90;;;;;;6173010;23;20017;-82
2022/12/20 03:52:02;;;;;;;10.95;5.75;;;8.70;99.90;;;;;;6170755;23;20036;-82
2022/12/20 03:54:28;;;;;;;10.70;5.10;;;8.80;99.90;;;;;;6174149;23;20029;-82
2022/12/20 03:56:53;;;;;;;9.65;5.40;;;8.80;99.90;;;;;;6173760;23;20071;-81
2022/12/20 03:59:19;;;;;;;8.32;5.00;;;8.70;99.90;;;;;;6172393;23;20028;-82
2022/12/20 04:01:45;;;;;;;10.07;5.47;;;8.80;99.90;;;;;;6171512;23;20312;-82
2022/12/20 04:04:13;;;;;;;8.65;5.22;;;8.80;99.90;;;;;;6175275;23;20025;-82
2022/12/20 04:06:39;;;;;;;8.70;5.22;;;8.80;99.90;;;;;;6174542;23;20473;-82
2022/12/20 04:09:05;;;;;;;8.35;4.93;;;8.80;99.90;;;;;;6175757;23;20536;-82
2022/12/20 04:11:31;;;;;;;9.00;5.40;;;8.80;99.90;;;;;;6187230;23;20005;-82
2022/12/20 04:13:56;;;;;;;11.48;5.03;;;8.80;99.90;;;;;;6196709;23;20052;-83
2022/12/20 04:16:25;;;;;;;8.43;5.00;;;8.90;99.90;;;;;;6198857;23;20041;-82
2022/12/20 04:18:51;;;;;;;9.32;4.85;;;8.90;99.90;;;;;;6176231;23;20025;-82
2022/12/20 04:21:22;;;;;;;7.35;5.03;;;8.80;99.90;;;;;;6171981;23;20048;-83
2022/12/20 04:23:48;;;;;;;8.32;5.28;;;8.80;99.90;;;;;;6174315;23;20038;-82
2022/12/20 04:26:14;;;;;;;9.90;5.05;;;8.80;99.90;;;;;;6171933;23;20361;-83
2022/12/20 04:28:39;;;;;;;10.73;5.22;;;8.80;99.90;;;;;;6171580;23;20071;-82
2022/12/20 04:31:05;;;;;;;9.05;5.30;;;8.80;99.90;;;;;;6173151;23;20362;-83
2022/12/20 04:33:31;;;;;;;7.70;5.25;;;8.90;99.90;;;;;;6172277;23;20021;-83
2022/12/20 04:35:57;;;;;;;7.18;5.18;;;8.90;99.90;;;;;;6149959;23;20025;-83
2022/12/20 04:38:23;;;;;;;8.73;5.07;;;9.00;99.90;;;;;;6147766;23;20025;-83
2022/12/20 04:40:50;;;;;;;11.32;5.18;;;9.00;99.90;;;;;;6147879;23;20037;-83
2022/12/20 04:43:17;;;;;;;10.40;5.20;;;8.90;99.90;;;;;;6148254;23;20052;-81
2022/12/20 04:45:43;;;;;;;8.55;5.15;;;8.90;99.90;;;;;;6149522;23;20473;-81
2022/12/20 04:48:10;;;;;;;8.48;5.05;;;8.90;99.90;;;;;;6144733;23;20092;-81
2022/12/20 04:50:36;;;;;;;9.05;4.95;;;9.00;99.90;;;;;;6148619;23;20028;-82
2022/12/20 04:55:46;;;;;;;7.95;4.95;;;9.00;99.90;;;;;;6147557;23;20021;-82
2022/12/20 04:58:12;;;;;;;8.48;4.97;;;9.00;99.90;;;;;;6173350;23;20029;-81
2022/12/20 05:00:37;;;;;;;10.05;4.80;;;9.10;99.90;;;;;;6175328;23;20017;-82
2022/12/20 05:03:03;;;;;;;9.90;4.78;;;9.10;99.90;;;;;;6170089;23;20021;-81
2022/12/20 05:05:29;;;;;;;8.13;5.28;;;9.00;99.90;;;;;;6174708;23;20017;-81
2022/12/20 05:07:55;;;;;;;8.77;5.13;;;9.10;99.90;;;;;;6149797;23;20281;-81
2022/12/20 05:10:20;;;;;;;8.95;5.13;;;9.00;99.90;;;;;;6177033;23;20025;-82
2022/12/20 05:12:46;;;;;;;11.65;5.30;;;9.10;99.90;;;;;;6155274;23;20025;-82
2022/12/20 05:15:12;;;;;;;12.13;5.50;;;9.00;99.90;;;;;;6153419;23;20075;-80
2022/12/20 05:17:38;;;;;;;8.00;4.85;;;9.10;99.90;;;;;;6179224;23;20103;-82
2022/12/20 05:20:05;;;;;;;10.65;5.13;;;9.10;99.90;;;;;;6151333;23;20396;-82
2022/12/20 05:28:00;;;;;;;7.20;5.05;;;9.20;99.90;;;;;;6157361;23;20021;-81
2022/12/20 05:30:26;;;;;;;8.65;4.90;;;9.10;99.90;;;;;;6150374;23;20071;-81
2022/12/20 05:32:52;;;;;;;8.98;5.10;;;9.10;99.90;;;;;;6154161;23;20036;-81
2022/12/20 05:35:18;;;;;;;6.57;4.80;;;9.20;99.90;;;;;;6174323;23;20107;-81
2022/12/20 05:37:44;;;;;;;9.85;4.40;;;9.30;99.90;;;;;;6173515;23;20005;-81
2022/12/20 05:40:10;;;;;;;10.20;5.25;;;9.20;99.90;;;;;;6175924;23;20048;-81
2022/12/20 05:42:37;;;;;;;10.10;4.68;;;9.20;99.90;;;;;;6176869;23;20032;-81
2022/12/20 05:45:04;;;;;;;8.48;5.10;;;9.20;99.90;;;;;;6176064;23;20052;-80
2022/12/20 05:47:32;;;;;;;7.95;5.03;;;9.20;99.90;;;;;;6174775;23;20025;-82
2022/12/20 05:49:59;;;;;;;10.25;5.03;;;9.20;99.90;;;;;;6175593;23;20029;-81
2022/12/20 05:52:25;;;;;;;8.73;5.07;;;9.20;99.90;;;;;;6175991;23;20031;-80
2022/12/20 05:54:50;;;;;;;8.98;5.22;;;9.30;99.90;;;;;;6181598;23;20093;-80
2022/12/20 05:57:16;;;;;;;9.07;5.45;;;9.30;99.90;;;;;;6177040;23;20044;-82
2022/12/20 05:59:42;;;;;;;7.75;4.78;;;9.20;99.90;;;;;;6178533;23;20053;-81
2022/12/20 06:02:09;;;;;;;8.10;4.72;;;9.20;99.90;;;;;;6175888;23;20366;-84
2022/12/20 06:04:37;;;;;;;8.50;4.20;;;9.30;99.90;;;;;;6172926;23;20096;-82
2022/12/20 06:07:04;;;;;;;8.25;4.18;;;9.20;99.90;;;;;;6171033;23;20128;-82
2022/12/20 06:09:30;;;;;;;6.70;4.28;;;9.30;99.90;;;;;;6176011;23;20371;-81
2022/12/20 06:11:56;;;;;;;7.60;4.32;;;9.30;99.90;;;;;;6176010;23;20095;-80
2022/12/20 06:14:22;;;;;;;7.13;4.22;;;9.30;99.90;;;;;;6173928;23;20345;-79
2022/12/20 06:16:47;;;;;;;7.75;4.50;;;9.40;99.90;;;;;;6172446;23;20021;-81
2022/12/20 06:19:13;;;;;;;10.70;5.75;;;9.30;99.90;;;;;;6172218;23;20052;-79
2022/12/20 06:21:39;;;;;;;9.20;4.47;;;9.40;99.90;;;;;;6175268;23;20013;-76
2022/12/20 06:24:05;;;;;;;8.63;4.65;;;9.40;99.90;;;;;;6173148;23;20393;-77
2022/12/20 06:26:35;;;;;;;6.22;4.25;;;9.30;99.90;;;;;;6176131;23;20108;-78
2022/12/20 06:29:09;;;;;;;9.88;4.43;;;9.50;99.90;;;;;;6174314;23;20017;-75
2022/12/20 06:31:35;;;;;;;8.23;5.28;;;9.40;99.90;;;;;;6168018;23;20484;-76
2022/12/20 06:34:00;;;;;;;7.88;5.22;;;9.50;99.90;;;;;;6172516;23;20386;-75
2022/12/20 06:36:26;;;;;;;11.43;5.60;;;9.50;99.90;;;;;;6169157;23;20068;-78
2022/12/20 06:38:52;;;;;;;13.45;5.82;;;9.60;99.90;;;;;;6174494;23;20025;-77
2022/12/20 06:41:18;;;;;;;10.15;5.88;;;9.50;99.90;;;;;;6174730;23;20028;-78
2022/12/20 06:43:44;;;;;;;9.57;5.82;;;9.50;99.90;;;;;;6150356;23;20020;-77
2022/12/20 06:46:10;;;;;;;7.85;5.80;;;9.60;99.90;;;;;;6177722;23;20025;-77
2022/12/20 06:48:36;;;;;;;8.45;6.10;;;9.50;99.90;;;;;;6150376;23;20060;-76
2022/12/20 06:51:01;;;;;;;8.15;5.47;;;9.50;99.90;;;;;;6176489;23;20361;-74
2022/12/20 06:53:27;;;;;;;9.65;6.07;;;9.50;99.90;;;;;;6179483;23;20025;-74
2022/12/20 06:55:53;;;;;;;11.73;5.88;;;9.40;99.90;;;;;;6176363;23;20032;-75
2022/12/20 06:58:20;;;;;;;12.52;6.15;;;9.50;99.90;;;;;;6178676;23;20754;-74
2022/12/20 07:00:46;;;;;;;13.10;6.40;;;9.40;99.90;;;;;;6177186;23;20017;-74
2022/12/20 07:03:12;;;;;;;8.80;5.80;;;9.50;99.90;;;;;;6176415;23;20025;-73
2022/12/20 07:05:39;;;;;;;10.98;6.32;;;9.40;99.90;;;;;;6179212;23;20017;-74
2022/12/20 07:08:05;;;;;;;7.90;5.18;;;9.40;99.90;;;;;;6150531;23;20092;-73
2022/12/20 07:10:34;;;;;;;10.50;6.55;;;9.40;99.90;;;;;;6152002;23;20103;-75
2022/12/20 07:12:59;;;;;;;12.40;7.13;;;9.50;99.90;;;;;;6152202;23;20330;-75
2022/12/20 07:15:25;;;;;;;9.57;6.47;;;9.50;99.90;;;;;;6177082;23;20028;-73
2022/12/20 07:17:51;;;;;;;10.52;6.28;;;9.50;99.90;;;;;;6176011;23;20087;-74
2022/12/20 07:20:20;;;;;;;9.95;6.22;;;9.50;99.90;;;;;;6149941;23;20025;-75
2022/12/20 07:22:48;;;;;;;13.15;7.70;;;9.40;99.90;;;;;;6151505;23;20475;-74
2022/12/20 07:25:14;;;;;;;10.52;6.72;;;9.50;99.90;;;;;;6149071;23;20021;-73
2022/12/20 07:27:40;;;;;;;10.48;6.13;;;9.40;99.90;;;;;;6175221;23;20029;-75
2022/12/20 07:30:06;;;;;;;10.63;6.32;;;9.40;99.90;;;;;;6177286;23;20137;-74
2022/12/20 07:32:32;;;;;;;11.10;6.72;;;9.50;99.90;;;;;;6177297;23;20021;-75
2022/12/20 07:34:58;;;;;;;12.55;6.10;;;9.50;99.90;;;;;;6152417;23;20075;-73
2022/12/20 07:37:24;;;;;;;13.35;6.80;;;9.50;99.90;;;;;;6177047;23;20617;-74
2022/12/20 07:39:49;;;;;;;10.18;6.53;;;9.40;99.90;;;;;;6177779;23;20017;-73
2022/12/20 07:42:15;;;;;;;13.95;6.60;;;9.30;99.90;;;;;;6151868;23;20108;-74
2022/12/20 07:44:41;;;;;;;9.75;6.35;;;9.40;99.90;;;;;;6176495;23;20028;-75
2022/12/20 07:47:08;;;;;;;10.52;6.63;;;9.40;99.90;;;;;;6176274;23;20036;-76
2022/12/20 07:49:34;;;;;;;10.27;5.93;;;9.30;99.90;;;;;;6178103;23;20453;-76
2022/12/20 07:52:03;;;;;;;10.77;6.72;;;9.30;99.90;;;;;;6151568;23;20032;-76
2022/12/20 07:54:42;;;;;;;14.65;6.75;;;9.30;99.90;;;;;;6178211;23;20119;-73
2022/12/20 07:57:21;;;;;;;8.82;6.03;;;9.20;99.90;;;;;;6179142;23;20444;-73
2022/12/20 07:59:52;;;;;;;8.48;5.90;;;9.30;99.90;;;;;;6178504;23;20044;-74
2022/12/20 08:02:23;;;;;;;9.52;5.82;;;9.40;99.90;;;;;;6175754;23;20021;-73
2022/12/20 08:04:49;;;;;;;10.38;5.97;;;9.30;99.90;;;;;;6150007;23;20025;-74
2022/12/20 08:07:16;;;;;;;9.70;6.40;;;9.40;99.90;;;;;;6177149;23;20025;-74
2022/12/20 08:09:43;;;;;;;8.93;5.70;;;9.30;99.90;;;;;;6179717;23;20025;-74
2022/12/20 08:12:12;;;;;;;10.25;6.03;;;9.20;99.90;;;;;;6176711;23;20585;-73
2022/12/20 08:14:38;;;;;;;7.57;5.68;;;9.20;99.90;;;;;;6177957;23;20025;-73
2022/12/20 08:17:04;;;;;;;11.80;5.97;;;9.30;99.90;;;;;;6175424;23;20017;-73
2022/12/20 08:19:30;;;;;;;7.80;5.32;;;9.40;99.90;;;;;;6175654;23;20334;-74
2022/12/20 08:21:57;;;;;;;9.77;5.05;;;9.30;99.90;;;;;;6175847;23;20024;-74
2022/12/20 08:24:22;;;;;;;8.85;5.22;;;9.40;99.90;;;;;;6176679;23;20021;-74
2022/12/20 08:26:48;;;;;;;9.88;4.95;;;9.30;99.90;;;;;;6150150;23;20043;-74
2022/12/20 08:29:14;;;;;;;8.35;5.38;;;9.40;99.90;;;;;;6176176;23;20021;-74
2022/12/20 08:31:41;;;;;;;6.85;4.90;;;9.50;99.90;;;;;;6146669;23;20460;-74
2022/12/20 08:34:08;;;;;;;14.52;6.35;;;9.50;99.90;;;;;;6174693;23;20368;-74
2022/12/20 08:36:33;;;;;;;9.98;5.07;;;9.50;99.90;;;;;;6151102;23;20519;-74
2022/12/20 08:39:03;;;;;;;11.20;4.90;;;9.50;99.90;;;;;;6151413;23;20020;-74
2022/12/20 08:41:29;;;;;;;11.25;5.10;;;9.50;99.90;;;;;;6149973;23;20343;-74
2022/12/20 08:43:55;;;;;;;8.00;4.00;;;9.50;99.90;;;;;;6151398;23;20029;-74
2022/12/20 08:46:21;;;;;;;10.68;5.18;;;9.50;99.90;;;;;;6176481;23;20983;-74
2022/12/20 08:48:46;;;;;;;8.60;4.97;;;9.50;99.90;;;;;;6177713;23;20115;-74
2022/12/20 08:51:12;;;;;;;7.55;4.53;;;9.50;99.90;;;;;;6150367;23;20021;-74
2022/12/20 08:53:39;;;;;;;7.28;4.20;;;9.60;99.90;;;;;;6175293;23;20037;-75
2022/12/20 08:56:09;;;;;;;11.05;4.53;;;9.60;99.90;;;;;;6175638;23;20465;-74
2022/12/20 08:58:35;;;;;;;6.35;4.72;;;9.60;99.90;;;;;;6151894;23;20095;-76
2022/12/20 09:01:04;;;;;;;7.15;4.00;;;9.70;99.90;;;;;;6145959;23;20466;-74
2022/12/20 09:03:31;;;;;;;6.60;4.15;;;9.60;99.90;;;;;;6178936;23;20184;-75
2022/12/20 09:05:58;;;;;;;8.55;3.88;;;9.70;99.90;;;;;;6162587;23;20092;-76
2022/12/20 09:08:24;;;;;;;7.53;3.90;;;9.70;99.90;;;;;;6178381;23;20024;-75
2022/12/20 09:10:50;;;;;;;7.93;3.95;;;9.80;99.90;;;;;;6178012;23;20017;-75
2022/12/20 09:13:16;;;;;;;7.35;3.42;;;9.70;99.90;;;;;;6175952;23;20084;-75
2022/12/20 09:15:42;;;;;;;8.07;3.55;;;9.70;99.90;;;;;;6175880;23;20024;-75
2022/12/20 09:18:09;;;;;;;7.22;3.63;;;9.80;99.90;;;;;;6150643;23;20028;-75
2022/12/20 09:20:34;;;;;;;7.13;3.83;;;9.80;99.90;;;;;;6152607;23;20045;-75
2022/12/20 09:23:00;;;;;;;7.10;3.40;;;9.80;99.90;;;;;;6177444;23;20335;-75
2022/12/20 09:25:27;;;;;;;5.07;3.50;;;9.80;99.90;;;;;;6151903;23;20031;-75
2022/12/20 09:27:56;;;;;;;9.32;3.65;;;9.90;99.90;;;;;;6176860;23;20021;-75
2022/12/20 09:30:23;;;;;;;4.82;2.95;;;9.90;99.90;;;;;;6176262;23;20029;-74
2022/12/20 09:32:48;;;;;;;10.65;3.63;;;9.90;99.90;;;;;;6177282;23;20032;-74
2022/12/20 09:35:14;;;;;;;7.28;3.70;;;10.00;99.90;;;;;;6178709;23;20024;-75
2022/12/20 09:37:40;;;;;;;9.05;3.53;;;10.00;99.90;;;;;;6177577;23;20017;-75
2022/12/20 09:40:13;;;;;;;9.63;3.70;;;10.00;99.90;;;;;;6177572;23;20087;-74
2022/12/20 09:42:39;;;;;;;5.93;3.10;;;10.10;99.90;;;;;;6175939;23;20021;-75
2022/12/20 09:45:11;;;;;;;7.68;3.10;;;10.00;99.90;;;;;;6151269;23;20025;-75
2022/12/20 09:47:38;;;;;;;8.05;3.50;;;10.10;99.90;;;;;;6176691;23;20014;-75
2022/12/20 09:50:05;;;;;;;4.32;3.08;;;10.10;99.90;;;;;;6176401;23;20029;-74
2022/12/20 09:53:05;;;;;;;8.55;3.38;;;10.00;99.90;;;;;;6178538;23;20041;-79
2022/12/20 09:55:39;;;;;;;5.65;3.33;;;10.00;99.90;;;;;;6149636;23;20056;-75
2022/12/20 09:58:20;;;;;;;5.70;3.03;;;10.10;99.90;;;;;;6149595;23;20020;-75
2022/12/20 10:00:48;;;;;;;6.70;3.25;;;10.10;99.90;;;;;;6176154;23;20088;-75
2022/12/20 10:03:21;;;;;;;7.25;3.10;;;10.00;99.90;;;;;;6176194;23;20067;-75
2022/12/20 10:05:56;;;;;;;9.07;3.83;;;10.10;99.90;;;;;;6150135;23;20017;-75
2022/12/20 10:08:46;;;;;;;6.50;2.92;;;10.00;99.90;;;;;;6177693;23;20021;-74
2022/12/20 10:11:43;;;;;;;9.25;3.17;;;10.10;99.90;;;;;;6176813;23;20052;-75
2022/12/20 10:14:50;;;;;;;10.77;3.85;;;10.10;99.90;;;;;;6177491;23;20056;-75
2022/12/20 10:17:24;;;;;;;7.43;3.38;;;10.10;99.90;;;;;;6107151;23;20025;-75
2022/12/20 10:20:25;;;;;;;7.20;3.50;;;10.10;99.90;;;;;;6151601;23;20021;-76
2022/12/20 10:23:03;;;;;;;9.23;3.25;;;10.00;99.90;;;;;;6164695;23;20534;-75
2022/12/20 10:25:33;;;;;;;5.13;3.10;;;10.10;99.90;;;;;;6177673;23;20017;-75
2022/12/20 10:28:10;;;;;;;6.57;2.95;;;10.10;99.90;;;;;;6177731;23;20017;-76
2022/12/20 10:30:35;;;;;;;6.30;3.13;;;10.10;99.90;;;;;;6178521;23;20028;-74
2022/12/20 10:33:01;;;;;;;9.88;3.33;;;10.10;99.90;;;;;;6157003;23;20055;-75
2022/12/20 10:35:30;;;;;;;6.47;2.90;;;10.00;99.90;;;;;;6175968;23;20287;-75
2022/12/20 10:37:56;;;;;;;8.23;3.58;;;10.10;99.90;;;;;;6171903;23;20632;-76
2022/12/20 10:40:28;;;;;;;5.68;3.25;;;10.10;99.90;;;;;;6172837;23;20100;-73
2022/12/20 10:42:55;;;;;;;6.45;3.10;;;10.20;99.90;;;;;;6176511;23;20032;-76
2022/12/20 10:45:20;;;;;;;8.48;3.45;;;10.10;99.90;;;;;;6170835;23;20350;-75
2022/12/20 10:47:50;;;;;;;7.13;3.42;;;10.10;99.90;;;;;;6175277;23;20495;-75
2022/12/20 10:50:21;;;;;;;7.63;3.33;;;10.10;99.90;;;;;;6174385;23;20021;-75
2022/12/20 10:53:02;;;;;;;9.48;3.63;;;10.20;99.90;;;;;;6175845;23;20071;-73
2022/12/20 10:55:34;;;;;;;7.82;3.83;;;10.10;99.90;;;;;;6172366;23;20465;-78
2022/12/20 10:58:34;;;;;;;6.68;3.63;;;10.10;99.90;;;;;;6178944;23;20462;-73
2022/12/20 11:01:13;;;;;;;5.45;2.88;;;10.10;99.90;;;;;;6176020;23;20021;-74
2022/12/20 11:03:54;;;;;;;6.07;3.53;;;10.10;99.90;;;;;;6177278;23;20032;-75
2022/12/20 11:06:24;;;;;;;9.27;4.20;;;10.20;99.90;;;;;;6178779;23;20481;-75
2022/12/20 11:08:50;;;;;;;7.72;3.53;;;10.20;99.90;;;;;;6178228;23;20024;-75
2022/12/20 11:11:21;;;;;;;7.68;3.55;;;10.10;99.90;;;;;;6178680;23;20096;-75
2022/12/20 11:13:49;;;;;;;9.23;4.30;;;10.10;99.90;;;;;;6176315;23;20428;-74
2022/12/20 11:16:34;;;;;;;6.93;4.32;;;10.00;99.90;;;;;;6174127;23;20079;-74
2022/12/20 11:19:17;;;;;;;8.73;4.50;;;10.10;99.90;;;;;;6178190;23;20418;-75
2022/12/20 11:22:06;;;;;;;9.32;5.38;;;10.10;99.90;;;;;;6176855;23;20021;-74
2022/12/20 11:24:44;;;;;;;9.57;4.18;;;10.00;99.90;;;;;;6176204;23;20053;-74
2022/12/20 11:27:20;;;;;;;8.63;4.10;;;10.10;99.90;;;;;;6176477;23;20092;-73
2022/12/20 11:29:52;;;;;;;6.35;3.25;;;10.00;99.90;;;;;;6179130;23;20124;-73
2022/12/20 11:32:56;;;;;;;7.32;3.92;;;10.00;99.90;;;;;;6178066;23;20025;-74
2022/12/20 11:36:07;;;;;;;7.32;4.13;;;9.90;99.90;;;;;;6028257;23;20038;-74
2022/12/20 11:38:59;;;;;;;11.50;4.90;;;10.00;99.90;;;;;;6006750;23;20035;-74
2022/12/20 11:42:03;;;;;;;8.98;4.30;;;9.90;99.90;;;;;;6142208;23;20017;-74
2022/12/20 11:44:38;;;;;;;7.13;4.63;;;9.90;99.90;;;;;;6028384;23;20496;-73
2022/12/20 11:47:09;;;;;;;11.05;4.97;;;9.90;99.90;;;;;;6027573;23;20028;-74
2022/12/20 11:50:06;;;;;;;8.30;5.55;;;9.90;99.90;;;;;;6087598;23;20922;-74
2022/12/20 11:52:37;;;;;;;8.82;4.63;;;9.80;99.90;;;;;;6152178;23;20485;-74
2022/12/20 11:55:12;;;;;;;12.02;6.30;;;9.80;99.90;;;;;;6151671;23;20060;-74
2022/12/20 11:58:05;;;;;;;13.60;7.70;;;9.70;99.90;;;;;;6151949;23;20527;-75
2022/12/20 12:00:35;;;;;;;10.15;6.30;;;9.70;99.90;;;;;;6179054;23;20021;-74
2022/12/20 12:03:27;;;;;;;8.18;5.97;;;9.80;99.90;;;;;;6177600;23;20021;-74
2022/12/20 12:06:24;;;;;;;8.55;6.28;;;9.70;99.90;;;;;;6178979;23;20476;-74
2022/12/20 12:08:53;;;;;;;11.15;6.03;;;9.80;99.90;;;;;;6164981;23;20070;-77
2022/12/20 12:11:26;;;;;;;7.88;5.40;;;9.80;99.90;;;;;;6150547;23;20310;-75
2022/12/20 12:13:52;;;;;;;13.63;5.97;;;9.70;99.90;;;;;;6152811;23;20024;-76
2022/12/20 12:16:34;;;;;;;13.93;6.90;;;9.80;99.90;;;;;;6151309;23;20032;-77
2022/12/20 12:19:01;;;;;;;14.75;7.60;;;9.70;99.90;;;;;;6151544;23;20318;-72
2022/12/20 12:21:33;;;;;;;18.33;8.90;;;9.80;99.90;;;;;;6179096;23;20021;-76
2022/12/20 12:24:19;;;;;;;15.18;8.25;;;9.80;99.90;;;;;;6152466;23;20046;-77
2022/12/20 12:26:45;;;;;;;12.32;7.03;;;9.70;99.90;;;;;;6150794;23;20049;-81
2022/12/20 12:29:13;;;;;;;16.83;8.30;;;9.70;99.90;;;;;;6151848;23;20021;-78
2022/12/20 12:32:18;;;;;;;13.85;8.60;;;9.70;99.90;;;;;;6177256;23;20091;-78
2022/12/20 12:35:04;;;;;;;13.48;8.55;;;9.80;99.90;;;;;;6152167;23;20495;-77
2022/12/20 12:37:51;;;;;;;11.93;7.95;;;9.70;99.90;;;;;;6178427;23;20061;-77
2022/12/20 12:40:44;;;;;;;18.40;7.65;;;9.70;99.90;;;;;;6177574;23;20493;-90
2022/12/20 12:43:35;;;;;;;13.48;7.28;;;9.70;99.90;;;;;;6177985;23;20021;-77
2022/12/20 12:46:08;;;;;;;11.75;6.75;;;9.70;99.90;;;;;;6176946;23;20377;-77
2022/12/20 12:48:51;;;;;;;11.77;6.72;;;9.60;99.90;;;;;;6179082;23;20025;-77
2022/12/20 12:51:41;;;;;;;13.40;7.45;;;9.60;99.90;;;;;;6178427;23;20024;-77
2022/12/20 12:54:27;;;;;;;12.20;7.00;;;9.60;99.90;;;;;;6176034;23;20528;-75
2022/12/20 12:57:02;;;;;;;10.48;6.72;;;9.70;99.90;;;;;;6178070;23;20021;-75
2022/12/20 12:59:33;;;;;;;11.40;7.90;;;9.70;99.90;;;;;;6152730;23;20021;-76
2022/12/20 13:02:05;;;;;;;12.63;6.70;;;9.60;99.90;;;;;;6175220;23;20339;-77
2022/12/20 13:05:19;;;;;;;9.35;6.22;;;9.60;99.90;;;;;;6178362;23;20017;-76
2022/12/20 13:07:45;;;;;;;11.23;6.72;;;9.70;99.90;;;;;;6175826;23;20453;-77
2022/12/20 13:10:14;;;;;;;13.30;7.88;;;9.70;99.90;;;;;;6151460;23;20017;-77
2022/12/20 13:12:39;;;;;;;11.38;7.70;;;9.60;99.90;;;;;;6151514;23;20087;-76
2022/12/20 13:15:20;;;;;;;12.90;7.88;;;9.50;99.90;;;;;;6150577;23;20033;-74
2022/12/20 13:17:49;;;;;;;12.77;8.20;;;9.50;99.90;;;;;;6175643;23;20032;-76